createdAt,value
2023-04-26T00:03:34.627Z,56.63
2023-04-26T00:06:04.914Z,56.48
2023-04-26T00:08:33.393Z,56.54
2023-04-26T00:11:03.861Z,56.42
2023-04-26T00:13:32.153Z,56.09
2023-04-26T00:16:00.883Z,56.05
2023-04-26T00:18:29.202Z,55.92
2023-04-26T00:20:57.989Z,55.99
2023-04-26T00:23:27.427Z,55.86
2023-04-26T00:25:57.732Z,55.69
2023-04-26T00:28:25.934Z,55.56
2023-04-26T00:30:54.192Z,55.52
2023-04-26T00:33:22.483Z,55.30
2023-04-26T00:35:51.179Z,55.14
2023-04-26T00:38:19.981Z,54.89
2023-04-26T00:40:48.672Z,54.70
2023-04-26T00:43:19.102Z,54.37
2023-04-26T00:45:48.571Z,54.15
2023-04-26T00:48:18.742Z,54.06
2023-04-26T00:50:48.067Z,54.69
2023-04-26T00:53:18.190Z,55.70
2023-04-26T00:55:47.150Z,56.76
2023-04-26T00:58:16.492Z,57.75
2023-04-26T01:00:46.653Z,58.23
2023-04-26T01:03:15.601Z,58.84
2023-04-26T01:05:46.716Z,59.71
2023-04-26T01:08:16.203Z,60.55
2023-04-26T01:10:44.534Z,61.24
2023-04-26T01:13:14.793Z,61.99
2023-04-26T01:15:48.224Z,62.70
2023-04-26T01:18:17.269Z,63.29
2023-04-26T01:20:45.938Z,63.67
2023-04-26T01:23:15.785Z,64.00
2023-04-26T01:25:44.850Z,64.27
2023-04-26T01:28:14.344Z,64.65
2023-04-26T01:30:43.609Z,64.73
2023-04-26T01:33:11.960Z,64.85
2023-04-26T01:35:40.258Z,64.74
2023-04-26T01:38:09.367Z,64.77
2023-04-26T01:40:38.833Z,64.77
2023-04-26T01:43:09.291Z,64.82
2023-04-26T01:45:38.180Z,64.92
2023-04-26T01:48:08.368Z,64.97
2023-04-26T01:50:37.052Z,65.08
2023-04-26T01:53:06.542Z,65.15
2023-04-26T01:55:34.820Z,65.29
2023-04-26T01:58:03.880Z,65.37
2023-04-26T02:00:33.830Z,65.43
2023-04-26T02:03:02.490Z,65.09
2023-04-26T02:05:31.816Z,65.22
2023-04-26T02:08:01.449Z,65.24
2023-04-26T02:10:30.661Z,65.28
2023-04-26T02:12:59.408Z,65.37
2023-04-26T02:15:28.271Z,65.31
2023-04-26T02:17:57.067Z,65.17
2023-04-26T02:20:25.981Z,64.95
2023-04-26T02:22:55.280Z,64.98
2023-04-26T02:25:24.846Z,65.08
2023-04-26T02:27:54.062Z,65.10
2023-04-26T02:30:22.307Z,65.38
2023-04-26T02:32:55.311Z,65.81
2023-04-26T02:35:24.105Z,66.12
2023-04-26T02:37:53.290Z,66.39
2023-04-26T02:40:22.720Z,66.64
2023-04-26T02:42:51.985Z,67.00
2023-04-26T02:45:20.737Z,67.40
2023-04-26T02:47:49.593Z,67.88
2023-04-26T02:50:18.433Z,68.04
2023-04-26T02:52:48.189Z,68.30
2023-04-26T02:55:17.505Z,68.33
2023-04-26T02:57:46.337Z,68.46
2023-04-26T03:00:15.204Z,68.80
2023-04-26T03:02:44.989Z,68.87
2023-04-26T03:05:15.218Z,68.88
2023-04-26T03:07:43.798Z,68.85
2023-04-26T03:10:12.798Z,68.99
2023-04-26T03:12:41.015Z,68.86
2023-04-26T03:15:11.275Z,68.96
2023-04-26T03:17:40.529Z,68.93
2023-04-26T03:20:09.291Z,69.05
2023-04-26T03:22:39.374Z,69.06
2023-04-26T03:25:08.277Z,68.98
2023-04-26T03:27:36.856Z,68.86
2023-04-26T03:30:06.668Z,68.84
2023-04-26T03:32:36.918Z,68.66
2023-04-26T03:35:07.304Z,68.65
2023-04-26T03:37:36.270Z,68.55
2023-04-26T03:40:10.256Z,68.48
2023-04-26T03:42:38.985Z,68.42
2023-04-26T03:45:08.731Z,68.33
2023-04-26T03:47:37.912Z,68.16
2023-04-26T03:50:08.431Z,68.17
2023-04-26T03:52:37.188Z,68.00
2023-04-26T03:55:06.604Z,67.83
2023-04-26T03:57:35.310Z,67.75
2023-04-26T04:00:04.861Z,67.71
2023-04-26T04:02:34.506Z,67.62
2023-04-26T04:05:04.009Z,67.37
2023-04-26T04:07:32.310Z,67.25
2023-04-26T04:10:01.689Z,67.11
2023-04-26T04:12:31.105Z,66.82
2023-04-26T04:14:59.715Z,66.78
2023-04-26T04:17:28.834Z,66.76
2023-04-26T04:20:02.562Z,66.69
2023-04-26T04:22:34.411Z,66.60
2023-04-26T04:25:03.264Z,66.46
2023-04-26T04:27:32.272Z,66.39
2023-04-26T04:30:01.200Z,66.05
2023-04-26T04:32:30.176Z,65.80
2023-04-26T04:34:59.830Z,65.60
2023-04-26T04:37:29.228Z,65.52
2023-04-26T04:39:58.754Z,65.39
2023-04-26T04:42:28.527Z,65.20
2023-04-26T04:44:57.054Z,65.10
2023-04-26T04:47:25.773Z,64.86
2023-04-26T04:49:55.513Z,64.63
2023-04-26T04:52:24.226Z,64.49
2023-04-26T04:54:54.434Z,64.26
2023-04-26T04:57:23.014Z,64.22
2023-04-26T04:59:52.371Z,64.00
2023-04-26T05:02:21.386Z,63.85
2023-04-26T05:04:51.624Z,63.85
2023-04-26T05:07:20.888Z,63.79
2023-04-26T05:09:50.358Z,63.56
2023-04-26T05:12:19.071Z,63.60
2023-04-26T05:14:47.818Z,63.33
2023-04-26T05:17:16.047Z,63.31
2023-04-26T05:19:44.865Z,63.30
2023-04-26T05:22:13.216Z,63.25
2023-04-26T05:24:42.408Z,63.10
2023-04-26T05:27:12.121Z,63.13
2023-04-26T05:29:41.262Z,62.94
2023-04-26T05:32:11.249Z,62.96
2023-04-26T05:34:42.039Z,63.31
2023-04-26T05:37:10.877Z,63.49
2023-04-26T05:39:39.524Z,63.49
2023-04-26T05:42:08.933Z,63.54
2023-04-26T05:44:38.324Z,63.61
2023-04-26T05:47:08.943Z,63.54
2023-04-26T05:49:37.660Z,63.61
2023-04-26T05:52:06.285Z,63.47
2023-04-26T05:54:36.125Z,63.59
2023-04-26T05:57:04.907Z,63.47
2023-04-26T05:59:37.580Z,63.39
2023-04-26T06:02:05.930Z,63.21
2023-04-26T06:04:34.437Z,63.16
2023-04-26T06:07:03.037Z,63.14
2023-04-26T06:09:34.580Z,62.85
2023-04-26T06:12:03.748Z,62.64
2023-04-26T06:14:32.164Z,62.49
2023-04-26T06:17:00.678Z,62.42
2023-04-26T06:19:29.291Z,62.33
2023-04-26T06:21:57.586Z,62.25
2023-04-26T06:24:25.753Z,62.15
2023-04-26T06:26:54.266Z,61.94
2023-04-26T06:29:22.457Z,61.71
2023-04-26T06:31:50.670Z,61.67
2023-04-26T06:34:19.106Z,61.60
2023-04-26T06:36:47.532Z,61.52
2023-04-26T06:39:15.930Z,61.32
2023-04-26T06:41:44.474Z,61.29
2023-04-26T06:44:12.598Z,61.21
2023-04-26T06:46:40.839Z,60.92
2023-04-26T06:49:11.627Z,60.91
2023-04-26T06:51:39.780Z,60.86
2023-04-26T06:54:08.136Z,60.81
2023-04-26T06:56:36.375Z,60.75
2023-04-26T06:59:07.200Z,60.71
2023-04-26T07:01:36.165Z,60.60
2023-04-26T07:04:07.361Z,60.93
2023-04-26T07:06:37.837Z,61.23
2023-04-26T07:09:06.647Z,61.44
2023-04-26T07:11:35.056Z,61.76
2023-04-26T07:14:05.025Z,61.96
2023-04-26T07:16:33.161Z,62.17
2023-04-26T07:19:02.317Z,61.82
2023-04-26T07:21:31.093Z,61.60
2023-04-26T07:23:59.250Z,61.48
2023-04-26T07:26:27.577Z,61.27
2023-04-26T07:28:56.246Z,61.10
2023-04-26T07:31:24.499Z,60.97
2023-04-26T07:33:53.009Z,60.61
2023-04-26T07:36:24.565Z,60.30
2023-04-26T07:38:53.510Z,59.92
2023-04-26T07:41:21.742Z,59.55
2023-04-26T07:43:50.686Z,59.15
2023-04-26T07:46:19.328Z,58.62
2023-04-26T07:48:47.774Z,58.22
2023-04-26T07:51:16.307Z,57.95
2023-04-26T07:53:45.604Z,57.62
2023-04-26T07:56:13.765Z,57.40
2023-04-26T07:58:42.258Z,57.43
2023-04-26T08:01:10.384Z,57.38
2023-04-26T08:03:38.847Z,57.18
2023-04-26T08:06:07.487Z,57.16
2023-04-26T08:08:36.554Z,57.07
2023-04-26T08:11:08.355Z,56.89
2023-04-26T08:13:36.881Z,56.84
2023-04-26T08:16:06.427Z,56.67
2023-04-26T08:18:38.561Z,56.70
2023-04-26T08:21:06.845Z,56.67
2023-04-26T08:23:36.318Z,56.59
2023-04-26T08:26:05.209Z,57.13
2023-04-26T08:28:33.434Z,57.02
2023-04-26T08:31:02.660Z,56.74
2023-04-26T08:33:30.925Z,56.90
2023-04-26T08:36:00.234Z,56.89
2023-04-26T08:38:29.894Z,56.75
2023-04-26T08:41:01.067Z,56.61
2023-04-26T08:43:30.484Z,56.65
2023-04-26T08:46:00.095Z,56.49
2023-04-26T08:48:36.510Z,56.09
2023-04-26T08:51:06.857Z,55.80
2023-04-26T08:53:37.335Z,55.73
2023-04-26T08:56:07.911Z,55.52
2023-04-26T08:58:38.764Z,55.29
2023-04-26T09:01:09.346Z,55.23
2023-04-26T09:03:37.935Z,54.97
2023-04-26T09:06:07.904Z,54.71
2023-04-26T09:08:40.603Z,54.21
2023-04-26T09:11:10.547Z,53.85
2023-04-26T09:13:39.943Z,53.96
2023-04-26T09:16:09.542Z,53.94
2023-04-26T09:18:49.962Z,53.86
2023-04-26T09:21:18.684Z,53.68
2023-04-26T09:24:08.270Z,53.55
2023-04-26T09:26:36.496Z,53.25
2023-04-26T09:29:16.818Z,53.17
2023-04-26T09:31:50.233Z,53.09
2023-04-26T09:34:19.174Z,53.14
2023-04-26T09:36:55.500Z,53.22
2023-04-26T09:39:38.466Z,53.19
2023-04-26T09:42:08.258Z,53.06
2023-04-26T09:44:38.517Z,52.88
2023-04-26T09:47:09.526Z,52.59
2023-04-26T09:49:49.820Z,52.39
2023-04-26T09:52:19.949Z,52.21
2023-04-26T09:54:53.289Z,52.37
2023-04-26T09:57:22.568Z,52.35
2023-04-26T09:59:55.024Z,52.35
2023-04-26T10:02:26.763Z,52.09
2023-04-26T10:04:57.271Z,51.27
2023-04-26T10:07:27.451Z,52.41
2023-04-26T10:09:58.532Z,52.35
2023-04-26T10:12:29.975Z,52.53
2023-04-26T10:14:59.178Z,52.94
2023-04-26T10:17:28.114Z,53.42
2023-04-26T10:19:59.004Z,53.47
2023-04-26T10:22:32.538Z,54.06
2023-04-26T10:25:01.079Z,54.47
2023-04-26T10:27:49.015Z,54.73
2023-04-26T10:30:21.381Z,54.70
2023-04-26T10:32:55.854Z,54.69
2023-04-26T10:35:29.030Z,54.54
2023-04-26T10:38:00.792Z,54.36
2023-04-26T10:40:30.622Z,53.86
2023-04-26T10:43:17.497Z,53.76
2023-04-26T10:45:47.710Z,54.36
2023-04-26T10:48:23.382Z,54.32
2023-04-26T10:51:04.448Z,54.37
2023-04-26T10:53:53.968Z,53.68
2023-04-26T10:56:28.804Z,54.31
2023-04-26T11:02:01.332Z,56.44
2023-04-26T11:04:52.930Z,56.78
2023-04-26T11:07:37.480Z,56.83
2023-04-26T11:10:09.432Z,56.33
2023-04-26T11:12:42.340Z,56.41
2023-04-26T11:15:13.560Z,56.14
2023-04-26T11:17:42.458Z,55.94
2023-04-26T11:20:16.380Z,55.33
2023-04-26T11:22:45.329Z,55.21
2023-04-26T11:25:14.615Z,54.91
2023-04-26T11:27:43.738Z,54.44
2023-04-26T11:30:13.014Z,54.19
2023-04-26T11:32:42.385Z,54.16
2023-04-26T11:35:11.293Z,54.21
2023-04-26T11:37:39.770Z,54.20
2023-04-26T11:40:11.154Z,54.04
2023-04-26T11:42:39.447Z,54.04
2023-04-26T11:45:08.260Z,53.44
2023-04-26T11:47:37.702Z,52.79
2023-04-26T11:50:08.365Z,52.97
2023-04-26T11:52:38.319Z,53.64
2023-04-26T11:55:07.597Z,53.14
2023-04-26T11:57:35.897Z,52.74
2023-04-26T12:00:08.519Z,52.37
2023-04-26T12:02:37.833Z,52.80
2023-04-26T12:05:07.105Z,53.17
2023-04-26T12:07:36.770Z,53.08
2023-04-26T12:10:15.950Z,53.24
2023-04-26T12:12:47.838Z,52.90
2023-04-26T12:15:16.511Z,52.24
2023-04-26T12:18:08.081Z,52.29
2023-04-26T12:20:41.833Z,52.32
2023-04-26T12:23:17.585Z,52.37
2023-04-26T12:25:56.569Z,51.48
2023-04-26T12:28:25.047Z,51.09
2023-04-26T12:30:53.472Z,50.90
2023-04-26T12:33:21.817Z,50.73
2023-04-26T12:35:50.429Z,50.71
2023-04-26T12:38:19.135Z,50.33
2023-04-26T12:40:48.776Z,50.77
2023-04-26T12:43:17.115Z,50.29
2023-04-26T12:45:46.013Z,49.91
2023-04-26T12:48:16.260Z,50.08
2023-04-26T12:50:44.966Z,50.16
2023-04-26T12:53:14.468Z,50.50
2023-04-26T12:55:42.999Z,50.40
2023-04-26T12:58:11.745Z,50.48
2023-04-26T13:00:41.291Z,50.69
2023-04-26T13:03:10.943Z,50.56
2023-04-26T13:05:39.360Z,50.54
2023-04-26T13:08:07.535Z,50.46
2023-04-26T13:10:36.223Z,50.64
2023-04-26T13:13:05.115Z,50.79
2023-04-26T13:15:34.575Z,51.31
2023-04-26T13:18:03.923Z,51.61
2023-04-26T13:20:32.205Z,51.83
2023-04-26T13:23:01.278Z,51.39
2023-04-26T13:25:30.096Z,51.87
2023-04-26T13:27:58.777Z,52.07
2023-04-26T13:30:27.914Z,52.31
2023-04-26T13:32:59.456Z,52.10
2023-04-26T13:35:28.745Z,51.70
2023-04-26T13:37:57.627Z,51.72
2023-04-26T13:40:26.518Z,51.44
2023-04-26T13:42:55.757Z,51.45
2023-04-26T13:45:24.808Z,51.73
2023-04-26T13:47:54.149Z,51.85
2023-04-26T13:50:22.558Z,51.73
2023-04-26T13:52:52.577Z,52.28
2023-04-26T13:55:21.146Z,52.09
2023-04-26T13:57:50.512Z,52.34
2023-04-26T14:00:21.652Z,52.59
2023-04-26T14:02:50.205Z,52.69
2023-04-26T14:05:20.676Z,52.99
2023-04-26T14:07:49.586Z,53.22
2023-04-26T14:10:18.543Z,52.85
2023-04-26T14:12:47.254Z,52.61
2023-04-26T14:15:15.605Z,52.30
2023-04-26T14:17:45.596Z,51.97
2023-04-26T14:20:14.852Z,52.61
2023-04-26T14:22:44.129Z,53.13
2023-04-26T14:25:13.346Z,53.06
2023-04-26T14:27:41.457Z,52.73
2023-04-26T14:30:11.523Z,52.76
2023-04-26T14:32:39.842Z,52.84
2023-04-26T14:35:09.091Z,52.64
2023-04-26T14:37:37.958Z,52.05
2023-04-26T14:40:07.267Z,51.88
2023-04-26T14:42:35.381Z,52.04
2023-04-26T14:45:04.714Z,52.41
2023-04-26T14:47:34.142Z,52.52
2023-04-26T14:50:03.189Z,52.24
2023-04-26T14:52:34.706Z,52.71
2023-04-26T14:55:03.728Z,53.01
2023-04-26T14:57:32.872Z,53.11
2023-04-26T15:00:02.354Z,53.63
2023-04-26T15:02:31.001Z,53.96
2023-04-26T15:05:00.506Z,53.54
2023-04-26T15:07:32.449Z,53.21
2023-04-26T15:10:01.582Z,53.26
2023-04-26T15:12:31.587Z,53.70
2023-04-26T15:15:00.671Z,53.19
2023-04-26T15:17:33.040Z,53.26
2023-04-26T15:20:03.643Z,53.23
2023-04-26T15:22:34.865Z,52.87
2023-04-26T15:25:06.336Z,52.47
2023-04-26T15:27:36.147Z,52.55
2023-04-26T15:30:08.138Z,52.51
2023-04-26T15:32:36.391Z,51.78
2023-04-26T15:35:05.709Z,51.59
2023-04-26T15:37:37.245Z,51.52
2023-04-26T15:40:07.290Z,51.20
2023-04-26T15:42:36.939Z,51.15
2023-04-26T15:45:07.063Z,51.21
2023-04-26T15:47:35.376Z,51.15
2023-04-26T15:50:04.704Z,51.19
2023-04-26T15:52:39.298Z,51.55
2023-04-26T15:55:08.171Z,51.38
2023-04-26T15:57:36.801Z,51.41
2023-04-26T16:00:08.060Z,51.57
2023-04-26T16:02:38.463Z,51.73
2023-04-26T16:05:07.303Z,51.81
2023-04-26T16:07:37.113Z,52.35
2023-04-26T16:10:08.637Z,52.47
2023-04-26T16:12:37.351Z,52.23
2023-04-26T16:15:08.274Z,52.37
2023-04-26T16:17:37.430Z,52.67
2023-04-26T16:20:07.399Z,52.63
2023-04-26T16:22:37.099Z,52.98
2023-04-26T16:25:06.678Z,53.10
2023-04-26T16:27:35.599Z,53.15
2023-04-26T16:30:04.797Z,53.10
2023-04-26T16:32:33.675Z,53.37
2023-04-26T16:35:01.901Z,53.45
2023-04-26T16:37:31.438Z,53.59
2023-04-26T16:40:00.921Z,53.92
2023-04-26T16:42:30.597Z,54.07
2023-04-26T16:45:00.206Z,54.62
2023-04-26T16:47:28.392Z,54.92
2023-04-26T16:49:57.037Z,55.48
2023-04-26T16:52:25.306Z,55.79
2023-04-26T16:54:54.409Z,55.97
2023-04-26T16:57:22.617Z,56.40
2023-04-26T16:59:51.721Z,56.36
2023-04-26T17:02:20.244Z,56.40
2023-04-26T17:04:50.064Z,56.51
2023-04-26T17:07:18.933Z,56.85
2023-04-26T17:09:47.510Z,56.94
2023-04-26T17:12:16.293Z,56.91
2023-04-26T17:14:46.090Z,57.01
2023-04-26T17:17:16.082Z,57.21
2023-04-26T17:19:44.226Z,57.52
2023-04-26T17:22:13.554Z,57.71
2023-04-26T17:24:42.654Z,57.82
2023-04-26T17:27:10.771Z,57.86
2023-04-26T17:29:39.018Z,58.04
2023-04-26T17:32:07.265Z,58.16
2023-04-26T17:34:36.024Z,58.38
2023-04-26T17:37:04.409Z,58.53
2023-04-26T17:39:33.142Z,58.86
2023-04-26T17:42:01.420Z,58.94
2023-04-26T17:44:29.838Z,58.90
2023-04-26T17:46:58.178Z,59.25
2023-04-26T17:49:26.520Z,59.51
2023-04-26T17:51:55.601Z,59.82
2023-04-26T17:54:23.901Z,60.19
2023-04-26T17:56:52.354Z,60.25
2023-04-26T17:59:21.078Z,60.40
2023-04-26T18:01:50.411Z,60.42
2023-04-26T18:04:19.286Z,60.21
2023-04-26T18:06:49.673Z,60.06
2023-04-26T18:09:18.423Z,60.10
2023-04-26T18:11:47.993Z,60.10
2023-04-26T18:14:16.925Z,60.34
2023-04-26T18:16:45.224Z,60.83
2023-04-26T18:19:14.184Z,60.96
2023-04-26T18:21:42.694Z,60.74
2023-04-26T18:24:10.960Z,61.06
2023-04-26T18:26:41.062Z,61.24
2023-04-26T18:29:09.895Z,61.42
2023-04-26T18:31:39.532Z,61.64
2023-04-26T18:34:07.993Z,61.75
2023-04-26T18:36:36.792Z,61.94
2023-04-26T18:39:04.955Z,62.20
2023-04-26T18:41:33.092Z,62.34
2023-04-26T18:44:03.439Z,62.30
2023-04-26T18:46:31.784Z,62.31
2023-04-26T18:49:00.181Z,62.52
2023-04-26T18:51:28.645Z,62.65
2023-04-26T18:53:57.029Z,62.86
2023-04-26T18:56:25.323Z,63.01
2023-04-26T18:58:54.614Z,63.11
2023-04-26T19:01:22.922Z,63.16
2023-04-26T19:03:51.469Z,63.05
2023-04-26T19:06:20.502Z,62.97
2023-04-26T19:08:48.586Z,63.05
2023-04-26T19:11:17.219Z,63.40
2023-04-26T19:13:45.481Z,63.54
2023-04-26T19:16:14.028Z,63.83
2023-04-26T19:18:42.078Z,63.76
2023-04-26T19:21:11.329Z,63.64
2023-04-26T19:23:40.024Z,63.72
2023-04-26T19:26:12.157Z,63.68
2023-04-26T19:28:40.941Z,63.78
2023-04-26T19:31:09.994Z,63.99
2023-04-26T19:33:38.608Z,64.15
2023-04-26T19:36:09.098Z,64.28
2023-04-26T19:38:37.314Z,64.13
2023-04-26T19:41:05.762Z,64.19
2023-04-26T19:43:34.088Z,64.17
2023-04-26T19:46:10.419Z,64.26
2023-04-26T19:48:38.613Z,64.24
2023-04-26T19:51:06.941Z,64.21
2023-04-26T19:53:35.383Z,64.41
2023-04-26T19:56:03.718Z,64.44
2023-04-26T19:58:32.593Z,64.42
2023-04-26T20:01:01.463Z,64.51
2023-04-26T20:03:30.875Z,64.51
2023-04-26T20:05:59.691Z,64.49
2023-04-26T20:08:30.246Z,64.36
2023-04-26T20:11:03.212Z,64.45
2023-04-26T20:13:32.494Z,64.46
2023-04-26T20:16:00.928Z,64.38
2023-04-26T20:18:29.341Z,64.41
2023-04-26T20:20:57.821Z,64.48
2023-04-26T20:23:25.938Z,64.38
2023-04-26T20:25:54.141Z,64.55
2023-04-26T20:28:24.166Z,64.78
2023-04-26T20:30:52.446Z,64.90
2023-04-26T20:33:20.633Z,65.00
2023-04-26T20:35:49.267Z,65.12
2023-04-26T20:38:18.016Z,65.22
2023-04-26T20:40:47.104Z,65.42
2023-04-26T20:43:15.763Z,65.51
2023-04-26T20:45:43.966Z,65.75
2023-04-26T20:48:12.335Z,65.78
2023-04-26T20:50:41.209Z,65.82
2023-04-26T20:53:09.605Z,65.75
2023-04-26T20:55:37.919Z,65.89
2023-04-26T20:58:06.244Z,65.86
2023-04-26T21:00:36.086Z,66.02
2023-04-26T21:03:05.315Z,66.30
2023-04-26T21:05:33.946Z,66.30
2023-04-26T21:08:03.180Z,66.50
2023-04-26T21:10:31.936Z,66.50
2023-04-26T21:13:00.534Z,66.77
2023-04-26T21:15:29.562Z,66.94
2023-04-26T21:17:57.819Z,67.08
2023-04-26T21:20:26.268Z,67.38
2023-04-26T21:22:54.579Z,67.38
2023-04-26T21:25:23.097Z,67.66
2023-04-26T21:27:51.543Z,67.77
2023-04-26T21:30:22.450Z,67.82
2023-04-26T21:32:50.826Z,67.94
2023-04-26T21:35:20.399Z,67.98
2023-04-26T21:37:49.105Z,68.01
2023-04-26T21:40:18.087Z,67.99
2023-04-26T21:42:57.978Z,68.14
2023-04-26T21:45:33.179Z,68.13
2023-04-26T21:48:02.078Z,68.25
2023-04-26T21:50:30.388Z,68.39
2023-04-26T21:52:59.446Z,68.44
2023-04-26T21:55:28.228Z,68.54
2023-04-26T21:57:56.540Z,68.69
2023-04-26T22:00:24.974Z,68.85
2023-04-26T22:02:53.393Z,69.10
2023-04-26T22:05:21.878Z,69.16
2023-04-26T22:07:50.179Z,69.16
2023-04-26T22:10:18.698Z,69.30
2023-04-26T22:12:47.523Z,69.51
2023-04-26T22:15:16.544Z,69.53
2023-04-26T22:17:45.076Z,69.79
2023-04-26T22:20:13.895Z,69.78
2023-04-26T22:22:42.153Z,69.93
2023-04-26T22:25:10.973Z,70.11
2023-04-26T22:27:39.648Z,69.99
2023-04-26T22:30:22.962Z,70.05
2023-04-26T22:32:55.098Z,70.07
2023-04-26T22:35:26.955Z,70.18
2023-04-26T22:37:55.783Z,70.03
2023-04-26T22:40:24.579Z,69.83
2023-04-26T22:42:53.064Z,69.78
2023-04-26T22:45:23.393Z,69.86
2023-04-26T22:47:51.904Z,69.77
2023-04-26T22:50:21.379Z,69.80
2023-04-26T22:52:49.779Z,69.81
2023-04-26T22:55:18.320Z,69.89
2023-04-26T22:57:46.677Z,69.88
2023-04-26T23:00:15.720Z,69.91
2023-04-26T23:02:43.997Z,69.82
2023-04-26T23:05:13.386Z,69.76
2023-04-26T23:07:42.217Z,69.84
2023-04-26T23:10:11.084Z,69.83
2023-04-26T23:12:39.870Z,69.88
2023-04-26T23:15:09.743Z,69.87
2023-04-26T23:17:38.260Z,69.88
2023-04-26T23:20:07.803Z,69.86
2023-04-26T23:22:36.084Z,69.91
2023-04-26T23:25:04.457Z,69.81
2023-04-26T23:27:32.660Z,69.79
2023-04-26T23:30:01.057Z,69.81
2023-04-26T23:32:29.454Z,69.71
2023-04-26T23:34:57.801Z,69.92
2023-04-26T23:37:26.585Z,69.98
2023-04-26T23:39:55.200Z,69.98
2023-04-26T23:42:23.548Z,69.93
2023-04-26T23:44:51.725Z,70.01
2023-04-26T23:47:20.782Z,70.05
2023-04-26T23:49:49.471Z,69.94
2023-04-26T23:52:19.041Z,69.83
2023-04-26T23:54:47.846Z,69.71
2023-04-26T23:57:16.163Z,69.71
2023-04-26T23:59:45.008Z,69.68
